Time;durP1;ratioP1;P1;durP2;ratioP2;P2;SDS_P1;SDS_P2;PMS_P1;PMS_P2;Temp;Humidity;BMP_temperature;BMP_pressure;BME280_temperature;BME280_humidity;BME280_pressure;Samples;Min_cycle;Max_cycle;Signal;HPM_P1;HPM_P2
2022/09/15 00:00:27;;;;;;;;;;;;;;;15.00;100.00;98871.88;3050707;19;19931;-52
2022/09/15 00:01:29;;;;;;;;;;;;;;;14.98;100.00;98871.19;3050254;19;19921;-51
2022/09/15 00:02:33;;;;;;;;;;;;;;;14.99;100.00;98859.44;3045336;19;19923;-51
2022/09/15 00:03:35;;;;;;;;;;;;;;;14.98;100.00;98865.81;3051313;19;19923;-52
2022/09/15 00:04:40;;;;;;;;;;;;;;;14.98;100.00;98872.03;3051079;19;19934;-51
2022/09/15 00:05:41;;;;;;;;;;;;;;;14.98;100.00;98860.44;3051297;19;19942;-52
2022/09/15 00:06:46;;;;;;;;;;;;;;;14.98;100.00;98871.19;3050915;19;19926;-51
2022/09/15 00:07:48;;;;;;;;;;;;;;;14.98;100.00;98865.81;3050663;19;20275;-51
2022/09/15 00:08:52;;;;;;;;;;;;;;;14.98;100.00;98872.03;3050185;19;19982;-51
2022/09/15 00:09:54;;;;;;;;;;;;;;;14.92;100.00;98850.38;3050324;19;19915;-51
2022/09/15 00:11:00;;;;;;;;;;;;;;;14.97;100.00;98856.09;3050848;19;19922;-50
2022/09/15 00:12:01;;;;;;;;;;;;;;;14.98;100.00;98863.13;3047282;19;20621;-51
2022/09/15 00:13:06;;;;;;;;;;;;;;;14.97;100.00;98861.47;3051287;19;20378;-51
2022/09/15 00:14:08;;;;;;;;;;;;;;;14.97;100.00;98858.78;3050645;19;19929;-52
2022/09/15 00:15:14;;;;;;;;;;;;;;;14.96;100.00;98852.56;3050191;19;20002;-51
2022/09/15 00:16:16;;;;;;;;;;;;;;;14.96;100.00;98854.41;3049858;19;19988;-51
2022/09/15 00:17:21;;;;;;;;;;;;;;;14.95;100.00;98855.41;3050335;19;19919;-50
2022/09/15 00:18:24;;;;;;;;;;;;;;;14.94;100.00;98854.56;3050409;19;19996;-51
2022/09/15 00:19:28;;;;;;;;;;;;;;;14.92;100.00;98861.94;3050438;19;20476;-52
2022/09/15 00:20:30;;;;;;;;;;;;;;;14.89;100.00;98856.91;3050707;19;19923;-51
2022/09/15 00:21:35;;;;;;;;;;;;;;;14.87;100.00;98852.69;3049966;19;19979;-52
2022/09/15 00:22:37;;;;;;;;;;;;;;;14.86;100.00;98856.38;3046425;19;19944;-50
2022/09/15 00:23:41;;;;;;;;;;;;;;;14.83;100.00;98851.34;3050719;19;19919;-50
2022/09/15 00:24:43;;;;;;;;;;;;;;;14.82;100.00;98860.41;3050418;19;19938;-52
2022/09/15 00:25:51;;;;;;;;;;;;;;;14.84;100.00;98858.41;3051030;19;20409;-51
2022/09/15 00:26:53;;;;;;;;;;;;;;;14.85;100.00;98854.72;3051075;19;20470;-51
2022/09/15 00:27:58;;;;;;;;;;;;;;;14.85;100.00;98860.94;3050117;19;19936;-51
2022/09/15 00:29:00;;;;;;;;;;;;;;;14.88;100.00;98862.44;3049665;19;19926;-51
2022/09/15 00:30:05;;;;;;;;;;;;;;;14.89;100.00;98856.91;3050068;19;19919;-51
2022/09/15 00:31:08;;;;;;;;;;;;;;;14.93;100.00;98860.09;3050613;19;19958;-50
2022/09/15 00:32:13;;;;;;;;;;;;;;;14.95;100.00;98861.63;3044643;19;19926;-50
2022/09/15 00:33:15;;;;;;;;;;;;;;;15.01;100.00;98865.50;3050097;19;19918;-50
2022/09/15 00:34:19;;;;;;;;;;;;;;;15.05;100.00;98866.88;3050793;19;19927;-49
2022/09/15 00:35:21;;;;;;;;;;;;;;;15.03;100.00;98858.13;3049723;19;19988;-49
2022/09/15 00:36:26;;;;;;;;;;;;;;;15.12;100.00;98866.03;3050334;19;19927;-49
2022/09/15 00:37:28;;;;;;;;;;;;;;;15.16;100.00;98863.88;3050143;19;19986;-51
2022/09/15 00:38:32;;;;;;;;;;;;;;;15.20;100.00;98862.56;3050871;19;19919;-50
2022/09/15 00:39:34;;;;;;;;;;;;;;;15.22;100.00;98855.16;3050562;19;20353;-50
2022/09/15 00:40:48;;;;;;;;;;;;;;;15.26;100.00;98869.97;3049566;19;22075;-50
2022/09/15 00:41:50;;;;;;;;;;;;;;;15.28;100.00;98867.94;3046755;19;20034;-50
2022/09/15 00:42:55;;;;;;;;;;;;;;;15.29;100.00;98866.09;3048316;19;19938;-50
2022/09/15 00:43:58;;;;;;;;;;;;;;;15.28;100.00;98873.31;3050091;19;19978;-50
2022/09/15 00:45:03;;;;;;;;;;;;;;;15.28;100.00;98877.84;3050287;19;19998;-52
2022/09/15 00:46:05;;;;;;;;;;;;;;;15.27;100.00;98874.31;3050126;19;19997;-50
2022/09/15 00:47:10;;;;;;;;;;;;;;;15.27;100.00;98874.31;3051325;19;19978;-51
2022/09/15 00:48:20;;;;;;;;;;;;;;;15.27;100.00;98878.84;3050389;19;19918;-50
2022/09/15 00:49:29;;;;;;;;;;;;;;;15.25;100.00;98872.81;3049776;19;19978;-50
2022/09/15 00:50:31;;;;;;;;;;;;;;;15.26;100.00;98875.31;3049431;19;19923;-50
2022/09/15 00:51:41;;;;;;;;;;;;;;;15.26;100.00;98869.97;3049183;19;19992;-51
2022/09/15 00:52:47;;;;;;;;;;;;;;;15.18;100.00;98850.28;3047392;19;20353;-50
2022/09/15 00:53:51;;;;;;;;;;;;;;;15.28;100.00;98862.56;3049815;19;19915;-50
2022/09/15 00:55:03;;;;;;;;;;;;;;;15.27;100.00;98866.25;3051178;19;19919;-50
2022/09/15 00:56:07;;;;;;;;;;;;;;;15.27;100.00;98858.19;3049332;19;19933;-50
2022/09/15 00:57:11;;;;;;;;;;;;;;;15.27;100.00;98860.91;3050717;19;19935;-50
2022/09/15 00:58:21;;;;;;;;;;;;;;;15.29;100.00;98860.72;3052924;19;20291;-50
2022/09/15 00:59:23;;;;;;;;;;;;;;;15.27;100.00;98866.25;3053168;19;20795;-50
2022/09/15 01:00:28;;;;;;;;;;;;;;;15.27;100.00;98860.91;3053444;19;19925;-50
2022/09/15 01:01:30;;;;;;;;;;;;;;;15.28;100.00;98861.72;3052640;19;19975;-51
2022/09/15 01:02:36;;;;;;;;;;;;;;;15.27;100.00;98855.53;3049697;19;19922;-50
2022/09/15 01:03:38;;;;;;;;;;;;;;;15.27;100.00;98855.53;3054145;19;19931;-51
2022/09/15 01:04:42;;;;;;;;;;;;;;;15.26;100.00;98855.69;3053663;19;19919;-51
2022/09/15 01:05:45;;;;;;;;;;;;;;;15.26;100.00;98859.22;3052687;19;19923;-51
2022/09/15 01:06:51;;;;;;;;;;;;;;;15.25;100.00;98862.91;3053262;19;19915;-50
2022/09/15 01:07:55;;;;;;;;;;;;;;;15.24;100.00;98855.00;3053506;19;19915;-50
2022/09/15 01:09:06;;;;;;;;;;;;;;;15.23;100.00;98842.56;3053138;19;19927;-50
2022/09/15 01:10:15;;;;;;;;;;;;;;;15.20;100.00;98854.50;3054481;19;19919;-51
2022/09/15 01:11:20;;;;;;;;;;;;;;;15.21;100.00;98849.97;3053597;19;19992;-50
2022/09/15 01:12:22;;;;;;;;;;;;;;;15.20;100.00;98846.44;3049644;19;20054;-50
2022/09/15 01:13:28;;;;;;;;;;;;;;;15.19;100.00;98850.13;3054251;19;19923;-50
2022/09/15 01:14:31;;;;;;;;;;;;;;;15.16;100.00;98847.75;3053876;19;19919;-50
2022/09/15 01:15:47;;;;;;;;;;;;;;;15.15;100.00;98846.06;3054388;19;20038;-51
2022/09/15 01:16:55;;;;;;;;;;;;;;;15.13;100.00;98846.25;3053787;19;19979;-50
2022/09/15 01:18:06;;;;;;;;;;;;;;;15.13;100.00;98837.34;3053831;19;19915;-50
2022/09/15 01:19:21;;;;;;;;;;;;;;;15.11;100.00;98833.97;3054115;19;19978;-50
2022/09/15 01:20:32;;;;;;;;;;;;;;;15.11;100.00;98833.97;3053219;19;19946;-50
2022/09/15 01:21:45;;;;;;;;;;;;;;;15.12;100.00;98838.34;3052144;19;20003;-50
2022/09/15 01:23:05;;;;;;;;;;;;;;;15.09;100.00;98831.44;3050243;19;19915;-50
2022/09/15 01:24:12;;;;;;;;;;;;;;;15.09;100.00;98830.63;3053591;19;19985;-50
2022/09/15 01:25:34;;;;;;;;;;;;;;;15.09;100.00;98825.25;3052688;19;20222;-49
2022/09/15 01:26:56;;;;;;;;;;;;;;;15.03;100.00;98820.50;3053826;19;20032;-51
2022/09/15 01:28:19;;;;;;;;;;;;;;;15.07;100.00;98827.25;3054262;19;20480;-50
2022/09/15 01:29:33;;;;;;;;;;;;;;;15.06;100.00;98814.81;3053366;19;19933;-51
2022/09/15 01:30:41;;;;;;;;;;;;;;;15.04;100.00;98822.19;3053165;19;20230;-50
2022/09/15 01:33:04;;;;;;;;;;;;;;;15.04;100.00;98817.69;3052030;19;19919;-50
2022/09/15 01:34:11;;;;;;;;;;;;;;;15.04;100.00;98819.50;3052466;19;20004;-50
2022/09/15 01:35:27;;;;;;;;;;;;;;;15.03;100.00;98816.00;3052371;19;19923;-50
2022/09/15 01:36:37;;;;;;;;;;;;;;;15.05;100.00;98818.50;3051957;19;20017;-51
2022/09/15 01:37:41;;;;;;;;;;;;;;;15.06;100.00;98814.81;3052204;19;19923;-52
2022/09/15 01:38:51;;;;;;;;;;;;;;;15.06;100.00;98820.19;3052450;19;19981;-50
2022/09/15 01:39:53;;;;;;;;;;;;;;;15.07;100.00;98811.13;3052198;19;19951;-50
2022/09/15 01:41:03;;;;;;;;;;;;;;;15.07;100.00;98805.75;3052735;19;20255;-50
2022/09/15 01:42:06;;;;;;;;;;;;;;;15.07;100.00;98809.28;3048651;19;19939;-51
2022/09/15 01:43:10;;;;;;;;;;;;;;;15.07;100.00;98808.44;3053000;19;19974;-50
2022/09/15 01:44:13;;;;;;;;;;;;;;;15.09;100.00;98809.13;3052795;19;19970;-50
2022/09/15 01:45:19;;;;;;;;;;;;;;;15.09;100.00;98809.13;3052422;19;19931;-50
2022/09/15 01:46:25;;;;;;;;;;;;;;;15.10;100.00;98810.78;3052392;19;20424;-50
2022/09/15 01:47:27;;;;;;;;;;;;;;;15.09;100.00;98806.44;3053572;19;19938;-50
2022/09/15 01:48:31;;;;;;;;;;;;;;;15.08;100.00;98808.28;3052171;19;20001;-50
2022/09/15 01:49:34;;;;;;;;;;;;;;;15.09;100.00;98809.13;3053408;19;19926;-50
2022/09/15 01:50:44;;;;;;;;;;;;;;;15.10;100.00;98808.94;3053033;19;19931;-51
2022/09/15 01:51:46;;;;;;;;;;;;;;;15.09;100.00;98801.06;3050389;19;19961;-51
2022/09/15 01:52:51;;;;;;;;;;;;;;;15.11;100.00;98809.78;3051502;19;19946;-50
2022/09/15 01:53:55;;;;;;;;;;;;;;;15.09;100.00;98806.44;3052412;19;20035;-50
2022/09/15 01:54:59;;;;;;;;;;;;;;;15.03;100.00;98799.03;3052575;19;20314;-50
2022/09/15 01:56:13;;;;;;;;;;;;;;;15.10;100.00;98810.78;3052581;19;19986;-50
2022/09/15 01:57:16;;;;;;;;;;;;;;;15.08;100.00;98802.06;3052450;19;20062;-50
2022/09/15 01:58:20;;;;;;;;;;;;;;;15.08;100.00;98810.97;3051810;19;20014;-51
2022/09/15 01:59:24;;;;;;;;;;;;;;;15.09;100.00;98811.81;3052650;19;20238;-51
2022/09/15 02:00:28;;;;;;;;;;;;;;;15.09;100.00;98798.38;3053915;19;19914;-49
2022/09/15 02:01:39;;;;;;;;;;;;;;;15.09;100.00;98804.56;3051024;19;19926;-50
2022/09/15 02:02:48;;;;;;;;;;;;;;;15.08;100.00;98802.91;3049457;19;19918;-51
2022/09/15 02:03:54;;;;;;;;;;;;;;;15.08;100.00;98808.28;3051662;19;19930;-50
2022/09/15 02:04:59;;;;;;;;;;;;;;;15.08;100.00;98802.06;3050810;19;19934;-51
2022/09/15 02:06:06;;;;;;;;;;;;;;;15.08;100.00;98800.22;3051745;19;20344;-50
2022/09/15 02:07:12;;;;;;;;;;;;;;;15.09;100.00;98803.75;3051896;19;19922;-50
2022/09/15 02:08:18;;;;;;;;;;;;;;;15.09;100.00;98804.56;3051344;19;19982;-50
2022/09/15 02:09:25;;;;;;;;;;;;;;;15.09;100.00;98798.38;3052273;19;19919;-50
2022/09/15 02:10:39;;;;;;;;;;;;;;;15.09;100.00;98801.06;3052194;19;19923;-50
2022/09/15 02:11:47;;;;;;;;;;;;;;;15.09;100.00;98791.13;3050740;19;19975;-50
2022/09/15 02:12:58;;;;;;;;;;;;;;;15.08;100.00;98794.03;3050563;19;19935;-50
2022/09/15 02:14:10;;;;;;;;;;;;;;;15.09;100.00;98793.81;3052295;19;19923;-51
2022/09/15 02:15:15;;;;;;;;;;;;;;;15.09;100.00;98788.44;3052507;19;20011;-50
2022/09/15 02:16:18;;;;;;;;;;;;;;;15.09;100.00;98787.63;3052043;19;19922;-50
2022/09/15 02:17:23;;;;;;;;;;;;;;;15.09;100.00;98787.63;3052182;19;20002;-50
2022/09/15 02:18:37;;;;;;;;;;;;;;;15.08;100.00;98792.16;3052204;19;19915;-50
2022/09/15 02:19:42;;;;;;;;;;;;;;;15.10;100.00;98783.91;3052292;19;20579;-51
2022/09/15 02:20:57;;;;;;;;;;;;;;;15.10;100.00;98775.84;3051599;19;19998;-51
2022/09/15 02:22:27;;;;;;;;;;;;;;;15.12;100.00;98771.16;3049018;19;19915;-50
2022/09/15 02:23:30;;;;;;;;;;;;;;;15.12;100.00;98765.78;3052202;19;19986;-52
2022/09/15 02:24:58;;;;;;;;;;;;;;;15.12;100.00;98774.69;3051119;19;19978;-49
2022/09/15 02:26:07;;;;;;;;;;;;;;;15.13;100.00;98772.84;3051294;19;19945;-51
2022/09/15 02:27:14;;;;;;;;;;;;;;;15.14;100.00;98769.16;3052977;19;19989;-51
2022/09/15 02:28:16;;;;;;;;;;;;;;;15.14;100.00;98774.53;3051590;19;20007;-50
2022/09/15 02:29:20;;;;;;;;;;;;;;;15.13;100.00;98772.84;3052021;19;19974;-50
2022/09/15 02:30:22;;;;;;;;;;;;;;;15.13;100.00;98768.31;3052562;19;19930;-50
2022/09/15 02:31:27;;;;;;;;;;;;;;;15.14;100.00;98769.16;3051177;19;19928;-50
2022/09/15 02:32:29;;;;;;;;;;;;;;;15.16;100.00;98767.16;3048285;19;19927;-51
2022/09/15 02:33:34;;;;;;;;;;;;;;;15.17;100.00;98771.53;3051978;19;20071;-52
2022/09/15 02:34:37;;;;;;;;;;;;;;;15.18;100.00;98769.69;3052335;19;19934;-50
2022/09/15 02:35:41;;;;;;;;;;;;;;;15.18;100.00;98775.91;3050759;19;19970;-52
2022/09/15 02:36:44;;;;;;;;;;;;;;;15.19;100.00;98769.53;3052185;19;19934;-50
2022/09/15 02:37:49;;;;;;;;;;;;;;;15.19;100.00;98766.00;3051455;19;20530;-51
2022/09/15 02:38:58;;;;;;;;;;;;;;;15.19;100.00;98782.97;3051924;19;19918;-50
2022/09/15 02:40:02;;;;;;;;;;;;;;;15.18;100.00;98778.59;3051610;19;19978;-50
2022/09/15 02:41:04;;;;;;;;;;;;;;;15.16;100.00;98783.28;3051944;19;20622;-50
2022/09/15 02:42:09;;;;;;;;;;;;;;;15.16;100.00;98777.91;3048601;19;19930;-50
2022/09/15 02:44:50;;;;;;;;;;;;;;;15.14;100.00;98779.91;3045758;19;19938;-50
2022/09/15 02:45:53;;;;;;;;;;;;;;;15.14;100.00;98779.91;3052254;19;19986;-50
2022/09/15 02:46:59;;;;;;;;;;;;;;;15.13;100.00;98789.81;3052585;19;19918;-49
2022/09/15 02:48:01;;;;;;;;;;;;;;;15.13;100.00;98779.06;3053391;19;19923;-51
2022/09/15 02:49:05;;;;;;;;;;;;;;;15.13;100.00;98779.06;3053202;19;20317;-50
2022/09/15 02:50:07;;;;;;;;;;;;;;;15.13;100.00;98773.69;3054079;19;19945;-49
2022/09/15 02:51:13;;;;;;;;;;;;;;;15.13;100.00;98778.22;3053460;19;19919;-50
2022/09/15 02:52:14;;;;;;;;;;;;;;;15.12;100.00;98766.63;3049435;19;19945;-49
2022/09/15 02:53:19;;;;;;;;;;;;;;;15.14;100.00;98771.84;3052476;19;20390;-50
2022/09/15 02:54:21;;;;;;;;;;;;;;;15.14;100.00;98774.53;3053718;19;20010;-49
2022/09/15 02:55:27;;;;;;;;;;;;;;;15.17;100.00;98771.53;3051794;19;20027;-50
2022/09/15 02:56:29;;;;;;;;;;;;;;;15.16;100.00;98761.78;3052277;19;19918;-52
2022/09/15 02:57:34;;;;;;;;;;;;;;;15.17;100.00;98766.16;3053437;19;19935;-50
2022/09/15 02:58:35;;;;;;;;;;;;;;;15.18;100.00;98770.53;3053547;19;19978;-51
2022/09/15 03:00:57;;;;;;;;;;;;;;;15.20;100.00;98773.06;3053456;19;19922;-49
2022/09/15 03:01:59;;;;;;;;;;;;;;;15.20;100.00;98771.19;3050920;19;19926;-51
2022/09/15 03:03:03;;;;;;;;;;;;;;;15.22;100.00;98771.84;3050740;19;19947;-49
2022/09/15 03:04:05;;;;;;;;;;;;;;;15.23;100.00;98768.16;3053050;19;19943;-50
2022/09/15 03:05:10;;;;;;;;;;;;;;;15.26;100.00;98772.38;3052642;19;19919;-51
2022/09/15 03:06:15;;;;;;;;;;;;;;;15.27;100.00;98760.63;3052807;19;19923;-49
2022/09/15 03:07:20;;;;;;;;;;;;;;;15.29;100.00;98759.44;3052746;19;19915;-49
2022/09/15 03:08:22;;;;;;;;;;;;;;;15.31;100.00;98754.75;3053336;19;19923;-49
2022/09/15 03:09:27;;;;;;;;;;;;;;;15.34;100.00;98751.72;3053117;19;20250;-49
2022/09/15 03:10:29;;;;;;;;;;;;;;;15.37;100.00;98759.44;3052761;19;19919;-51
2022/09/15 03:11:34;;;;;;;;;;;;;;;15.40;100.00;98759.13;3053349;19;19918;-50
2022/09/15 03:12:36;;;;;;;;;;;;;;;15.43;100.00;98758.78;3050575;19;20331;-50
2022/09/15 03:13:41;;;;;;;;;;;;;;;15.44;100.00;98749.72;3053136;19;19923;-50
2022/09/15 03:14:43;;;;;;;;;;;;;;;15.46;100.00;98750.38;3052723;19;19922;-51
2022/09/15 03:15:47;;;;;;;;;;;;;;;15.48;100.00;98751.06;3052705;19;19942;-50
2022/09/15 03:16:49;;;;;;;;;;;;;;;15.49;100.00;98763.47;3052460;19;19935;-49
2022/09/15 03:17:54;;;;;;;;;;;;;;;15.50;100.00;98759.78;3051908;19;19927;-50
2022/09/15 03:18:57;;;;;;;;;;;;;;;15.52;100.00;98758.78;3053264;19;19914;-49
2022/09/15 03:20:02;;;;;;;;;;;;;;;15.54;100.00;98764.84;3051244;19;20433;-51
2022/09/15 03:21:04;;;;;;;;;;;;;;;15.55;100.00;98763.88;3052680;19;19926;-50
2022/09/15 03:22:09;;;;;;;;;;;;;;;15.54;100.00;98760.31;3049300;19;19915;-50
2022/09/15 03:23:11;;;;;;;;;;;;;;;15.56;100.00;98760.19;3050759;19;19947;-50
2022/09/15 03:24:17;;;;;;;;;;;;;;;15.57;100.00;98761.84;3052600;19;20673;-50
2022/09/15 03:25:19;;;;;;;;;;;;;;;15.58;100.00;98771.59;3051656;19;19937;-50
2022/09/15 03:26:24;;;;;;;;;;;;;;;15.59;100.00;98773.25;3053297;19;19940;-50
2022/09/15 03:27:26;;;;;;;;;;;;;;;15.58;100.00;98771.59;3052911;19;19983;-50
2022/09/15 03:28:30;;;;;;;;;;;;;;;15.58;100.00;98771.59;3052362;19;19958;-50
2022/09/15 03:29:32;;;;;;;;;;;;;;;15.58;100.00;98774.28;3052521;19;20460;-51
2022/09/15 03:30:36;;;;;;;;;;;;;;;15.57;100.00;98775.31;3053070;19;19930;-50
2022/09/15 03:31:38;;;;;;;;;;;;;;;15.58;100.00;98774.28;3052220;19;19978;-51
2022/09/15 03:32:43;;;;;;;;;;;;;;;15.59;100.00;98770.56;3050167;19;19922;-50
2022/09/15 03:33:45;;;;;;;;;;;;;;;15.58;100.00;98774.28;3052476;19;19927;-50
2022/09/15 03:34:49;;;;;;;;;;;;;;;15.59;100.00;98773.25;3052261;19;20026;-50
2022/09/15 03:35:54;;;;;;;;;;;;;;;15.60;100.00;98775.78;3052595;19;20315;-50
2022/09/15 03:36:59;;;;;;;;;;;;;;;15.61;100.00;98771.25;3052226;19;20022;-50
2022/09/15 03:38:01;;;;;;;;;;;;;;;15.62;100.00;98772.94;3053633;19;20050;-50
2022/09/15 03:39:05;;;;;;;;;;;;;;;15.64;100.00;98779.81;3052636;19;20015;-50
2022/09/15 03:40:09;;;;;;;;;;;;;;;15.65;100.00;98775.28;3052943;19;19918;-51
2022/09/15 03:41:14;;;;;;;;;;;;;;;15.68;100.00;98777.66;3051743;19;19911;-49
2022/09/15 03:42:16;;;;;;;;;;;;;;;15.67;100.00;98786.72;3049031;19;19914;-49
2022/09/15 03:43:20;;;;;;;;;;;;;;;15.66;100.00;98775.13;3051351;19;20428;-50
2022/09/15 03:44:22;;;;;;;;;;;;;;;15.65;100.00;98783.34;3052753;19;19982;-49
2022/09/15 03:45:27;;;;;;;;;;;;;;;15.64;100.00;98790.56;3051241;19;20628;-50
2022/09/15 03:46:29;;;;;;;;;;;;;;;15.62;100.00;98787.22;3052282;19;19982;-50
2022/09/15 03:47:33;;;;;;;;;;;;;;;15.60;100.00;98781.16;3051716;19;19931;-50
2022/09/15 03:48:36;;;;;;;;;;;;;;;15.61;100.00;98782.84;3052617;19;20253;-50
2022/09/15 03:49:40;;;;;;;;;;;;;;;15.60;100.00;98785.69;3051541;19;19919;-49
2022/09/15 03:50:42;;;;;;;;;;;;;;;15.59;100.00;98782.16;3051797;19;19926;-50
2022/09/15 03:51:47;;;;;;;;;;;;;;;15.59;100.00;98781.31;3050647;19;19943;-52
2022/09/15 03:52:49;;;;;;;;;;;;;;;15.58;100.00;98782.34;3050321;19;19923;-50
2022/09/15 03:53:53;;;;;;;;;;;;;;;15.57;100.00;98778.00;3052072;19;19935;-49
2022/09/15 03:54:55;;;;;;;;;;;;;;;15.57;100.00;98786.06;3052491;19;21273;-49
2022/09/15 03:56:08;;;;;;;;;;;;;;;15.57;100.00;98794.13;3051348;19;20467;-50
2022/09/15 03:57:10;;;;;;;;;;;;;;;15.57;100.00;98788.75;3052124;19;19974;-49
2022/09/15 03:58:15;;;;;;;;;;;;;;;15.57;100.00;98792.28;3052258;19;19931;-50
2022/09/15 03:59:17;;;;;;;;;;;;;;;15.57;100.00;98780.69;3051603;19;19919;-50
2022/09/15 04:00:22;;;;;;;;;;;;;;;15.59;100.00;98787.53;3051587;19;19931;-49
2022/09/15 04:01:24;;;;;;;;;;;;;;;15.60;100.00;98788.38;3051963;19;20342;-49
2022/09/15 04:02:28;;;;;;;;;;;;;;;15.61;100.00;98787.38;3048299;19;20545;-50
2022/09/15 04:03:30;;;;;;;;;;;;;;;15.62;100.00;98789.06;3052020;19;19926;-51
2022/09/15 04:04:35;;;;;;;;;;;;;;;15.63;100.00;98790.75;3052983;19;19914;-49
2022/09/15 04:05:37;;;;;;;;;;;;;;;15.63;100.00;98791.59;3052473;19;20370;-50
2022/09/15 04:06:42;;;;;;;;;;;;;;;15.63;100.00;98793.44;3051633;19;19927;-50
2022/09/15 04:07:44;;;;;;;;;;;;;;;15.63;100.00;98793.44;3052301;19;19919;-50
2022/09/15 04:08:49;;;;;;;;;;;;;;;15.62;100.00;98786.38;3051539;19;19923;-49
2022/09/15 04:09:50;;;;;;;;;;;;;;;15.63;100.00;98788.06;3050839;19;19939;-49
2022/09/15 04:10:55;;;;;;;;;;;;;;;15.62;100.00;98794.44;3051182;19;20411;-50
2022/09/15 04:11:57;;;;;;;;;;;;;;;15.61;100.00;98788.22;3050866;19;20002;-50
2022/09/15 04:13:02;;;;;;;;;;;;;;;15.61;100.00;98790.06;3049742;19;19915;-50
2022/09/15 04:14:03;;;;;;;;;;;;;;;15.60;100.00;98786.53;3052298;19;20243;-51
2022/09/15 04:15:08;;;;;;;;;;;;;;;15.57;100.00;98786.06;3052228;19;19915;-50
2022/09/15 04:16:14;;;;;;;;;;;;;;;15.55;100.00;98782.69;3051971;19;20638;-50
2022/09/15 04:17:18;;;;;;;;;;;;;;;15.51;100.00;98782.13;3051541;19;19926;-50
2022/09/15 04:18:20;;;;;;;;;;;;;;;15.47;100.00;98786.16;3051466;19;19930;-49
2022/09/15 04:19:25;;;;;;;;;;;;;;;15.43;100.00;98784.84;3050963;19;19945;-49
2022/09/15 04:20:27;;;;;;;;;;;;;;;15.40;100.00;98787.84;3052391;19;19914;-49
2022/09/15 04:21:31;;;;;;;;;;;;;;;15.36;100.00;98790.00;3051235;19;20358;-50
2022/09/15 04:22:33;;;;;;;;;;;;;;;15.32;100.00;98788.69;3047511;19;19931;-50
2022/09/15 04:23:37;;;;;;;;;;;;;;;15.30;100.00;98774.56;3050621;19;19986;-50
2022/09/15 04:24:42;;;;;;;;;;;;;;;15.29;100.00;98777.41;3050669;19;20675;-51
2022/09/15 04:25:55;;;;;;;;;;;;;;;15.27;100.00;98772.22;3050923;19;19919;-50
2022/09/15 04:26:57;;;;;;;;;;;;;;;15.24;100.00;98769.84;3052735;19;19919;-51
2022/09/15 04:28:02;;;;;;;;;;;;;;;15.21;100.00;98764.81;3052473;19;20342;-51
2022/09/15 04:29:04;;;;;;;;;;;;;;;15.19;100.00;98766.84;3051762;19;19922;-51
2022/09/15 04:30:09;;;;;;;;;;;;;;;15.18;100.00;98761.63;3051239;19;19926;-50
2022/09/15 04:31:12;;;;;;;;;;;;;;;15.16;100.00;98761.78;3049162;19;19959;-51
2022/09/15 04:32:16;;;;;;;;;;;;;;;15.16;100.00;98760.94;3048642;19;20388;-52
2022/09/15 04:33:18;;;;;;;;;;;;;;;15.13;100.00;98751.34;3051597;19;20068;-50
2022/09/15 04:34:23;;;;;;;;;;;;;;;15.11;100.00;98761.41;3052026;19;19986;-50
2022/09/15 04:35:25;;;;;;;;;;;;;;;15.08;100.00;98756.41;3051203;19;19978;-50
2022/09/15 04:36:30;;;;;;;;;;;;;;;15.05;100.00;98756.72;3050858;19;19915;-50
2022/09/15 04:37:32;;;;;;;;;;;;;;;15.02;100.00;98771.31;3051756;19;19921;-52
2022/09/15 04:38:37;;;;;;;;;;;;;;;15.01;100.00;98763.44;3049179;19;20362;-51
2022/09/15 04:39:42;;;;;;;;;;;;;;;14.99;100.00;98766.28;3050751;19;19927;-51
2022/09/15 04:40:44;;;;;;;;;;;;;;;14.98;100.00;98763.75;3051117;19;20029;-50
2022/09/15 04:41:48;;;;;;;;;;;;;;;14.95;100.00;98764.09;3048389;19;19933;-51
2022/09/15 04:42:51;;;;;;;;;;;;;;;14.94;100.00;98757.88;3049417;19;19935;-50
2022/09/15 04:43:56;;;;;;;;;;;;;;;14.94;100.00;98751.66;3051281;19;19921;-51
2022/09/15 04:44:58;;;;;;;;;;;;;;;14.93;100.00;98756.19;3051354;19;19930;-51
2022/09/15 04:46:02;;;;;;;;;;;;;;;14.94;100.00;98762.41;3050782;19;20519;-52
2022/09/15 04:47:07;;;;;;;;;;;;;;;14.92;100.00;98761.72;3052059;19;19938;-51
2022/09/15 04:48:08;;;;;;;;;;;;;;;14.92;100.00;98762.56;3051297;19;19915;-51
2022/09/15 04:49:13;;;;;;;;;;;;;;;14.93;100.00;98760.72;3051231;19;19934;-51
2022/09/15 04:50:15;;;;;;;;;;;;;;;14.94;100.00;98762.41;3051621;19;19935;-52
2022/09/15 04:51:21;;;;;;;;;;;;;;;14.96;100.00;98757.72;3051642;19;19940;-50
2022/09/15 04:52:23;;;;;;;;;;;;;;;14.98;100.00;98759.22;3047977;19;19923;-51
2022/09/15 04:53:28;;;;;;;;;;;;;;;15.00;100.00;98757.22;3052159;19;20119;-50
2022/09/15 04:54:32;;;;;;;;;;;;;;;15.03;100.00;98756.88;3051907;19;20555;-52
2022/09/15 04:55:37;;;;;;;;;;;;;;;15.07;100.00;98762.78;3051611;19;19927;-51
2022/09/15 04:56:39;;;;;;;;;;;;;;;15.08;100.00;98756.41;3050950;19;19936;-51
2022/09/15 04:57:43;;;;;;;;;;;;;;;15.12;100.00;98765.78;3050511;19;19927;-52
2022/09/15 04:58:46;;;;;;;;;;;;;;;15.14;100.00;98774.53;3051992;19;19918;-51
2022/09/15 04:59:50;;;;;;;;;;;;;;;15.17;100.00;98771.53;3050934;19;20324;-51
2022/09/15 05:00:52;;;;;;;;;;;;;;;15.18;100.00;98770.53;3051409;19;19998;-50
2022/09/15 05:01:57;;;;;;;;;;;;;;;15.20;100.00;98776.56;3049519;19;19919;-51
2022/09/15 05:02:59;;;;;;;;;;;;;;;15.24;100.00;98772.53;3048895;19;19915;-50
2022/09/15 05:04:04;;;;;;;;;;;;;;;15.26;100.00;98772.38;3051528;19;19932;-51
2022/09/15 05:05:06;;;;;;;;;;;;;;;15.27;100.00;98774.91;3052285;19;19981;-51
2022/09/15 05:06:12;;;;;;;;;;;;;;;15.29;100.00;98777.41;3051474;19;19919;-51
2022/09/15 05:07:17;;;;;;;;;;;;;;;15.31;100.00;98770.03;3045221;19;19930;-48
2022/09/15 05:08:18;;;;;;;;;;;;;;;15.32;100.00;98779.78;3049896;19;20327;-48
2022/09/15 05:09:24;;;;;;;;;;;;;;;15.35;100.00;98787.50;3050116;19;19995;-49
2022/09/15 05:10:25;;;;;;;;;;;;;;;15.37;100.00;98785.47;3050290;19;20016;-50
2022/09/15 05:11:31;;;;;;;;;;;;;;;15.38;100.00;98782.63;3049274;19;20330;-50
2022/09/15 05:12:33;;;;;;;;;;;;;;;15.40;100.00;98786.00;3047701;19;19922;-50
2022/09/15 05:13:38;;;;;;;;;;;;;;;15.42;100.00;98786.69;3049537;19;21267;-50
2022/09/15 05:14:40;;;;;;;;;;;;;;;15.44;100.00;98786.50;3050289;19;20104;-49
2022/09/15 05:15:44;;;;;;;;;;;;;;;15.46;100.00;98793.38;3049838;19;20306;-49
2022/09/15 05:16:46;;;;;;;;;;;;;;;15.48;100.00;98796.75;3050396;19;20299;-49
2022/09/15 05:17:51;;;;;;;;;;;;;;;15.52;100.00;98799.94;3050194;19;19942;-49
2022/09/15 05:18:53;;;;;;;;;;;;;;;15.54;100.00;98797.09;3050114;19;20015;-49
2022/09/15 05:19:58;;;;;;;;;;;;;;;15.56;100.00;98795.13;3049659;19;20355;-49
2022/09/15 05:21:00;;;;;;;;;;;;;;;15.60;100.00;98799.13;3050247;19;19930;-51
2022/09/15 05:22:05;;;;;;;;;;;;;;;15.64;100.00;98800.50;3048564;19;19922;-50
2022/09/15 05:23:07;;;;;;;;;;;;;;;15.69;100.00;98804.38;3049037;19;19930;-49
2022/09/15 05:24:11;;;;;;;;;;;;;;;15.73;100.00;98807.53;3050742;19;19970;-49
2022/09/15 05:25:13;;;;;;;;;;;;;;;15.77;100.00;98809.75;3050518;19;20516;-49
2022/09/15 05:26:18;;;;;;;;;;;;;;;15.83;100.00;98808.22;3050053;19;20050;-50
2022/09/15 05:27:20;;;;;;;;;;;;;;;15.87;100.00;98811.41;3046781;19;19978;-49
2022/09/15 05:28:25;;;;;;;;;;;;;;;15.94;100.00;98820.50;3050243;19;20377;-48
2022/09/15 05:29:27;;;;;;;;;;;;;;;15.98;100.00;98816.44;3050479;19;19942;-49
2022/09/15 05:30:31;;;;;;;;;;;;;;;16.02;100.00;98821.34;3050633;19;20300;-49
2022/09/15 05:31:43;;;;;;;;;;;;;;;16.05;100.00;98829.06;3049659;19;19930;-50
2022/09/15 05:32:45;;;;;;;;;;;;;;;16.09;100.00;98826.84;3048533;19;19919;-48
2022/09/15 05:33:51;;;;;;;;;;;;;;;16.13;100.00;98834.44;3047708;19;20107;-50
2022/09/15 05:34:53;;;;;;;;;;;;;;;16.17;100.00;98833.09;3050039;19;19926;-49
2022/09/15 05:36:01;;;;;;;;;;;;;;;16.21;100.00;98829.03;3048292;19;19922;-48
2022/09/15 05:37:05;;;;;;;;;;;;;;;16.28;100.00;98834.59;3049678;19;19998;-49